METAR AND TAF INFORMATION
METAR FOR EGNJ
ADDS - METARS form results

(2055 UTC 03 August 2021)
Data provider http://aviationweather.gov/metar/data/
 
METAR text: EGNJ 032050Z AUTO 31004KT 260V350 9999 RA BKN031/// BKN036/// 16/13 Q1014 RERA
Conditions at: EGNJ (HUMBERSIDE , GB) observed 2050 UTC 03 August 2021
Temperature: 16.0°C (61°F)
Dewpoint: 13.0°C (55°F) [RH = 82%]
Pressure (altimeter): 29.94 inches Hg (1014.0 mb)
Winds: from the NW (310 degrees) at 5 MPH (4 knots; 2.1 m/s)
Visibility: 6 or more miles (10+ km)
Ceiling: 3100 feet AGL
Clouds: broken clouds at 3100 feet AGL
broken clouds at 3600 feet AGL
Weather: RA  (moderate rain)

METAR text: EGNJ 032020Z AUTO 36004KT 250V040 9999 SCT032/// BKN039/// BKN046/// 17/10 Q1013
Conditions at: EGNJ (HUMBERSIDE , GB) observed 2020 UTC 03 August 2021
Temperature: 17.0°C (63°F)
Dewpoint: 10.0°C (50°F) [RH = 63%]
Pressure (altimeter): 29.91 inches Hg (1013.0 mb)
Winds: from the N (360 degrees) at 5 MPH (4 knots; 2.1 m/s)
Visibility: 6 or more miles (10+ km)
Ceiling: 3900 feet AGL
Clouds: scattered clouds at 3200 feet AGL
broken clouds at 3900 feet AGL
broken clouds at 4600 feet AGL
Weather: no significant weather observed at this time

Forecast for: EGNJ (HUMBERSIDE , GB)
Text: TAF EGNJ 031955Z 0321/0406 36005KT 9999 SCT047
Forecast period: 2100 UTC 03 August 2021 to 0600 UTC 04 August 2021
Forecast type: FROM: standard forecast or significant change
Winds: from the N (360 degrees) at 6 MPH (5 knots; 2.6 m/s)
Visibility: 6 or more miles (10+ km)
Ceiling: at least 12,000 feet AGL
Clouds: scattered clouds at 4700 feet AGL
Weather: no significant weather forecast for this period
Text: PROB30
Forecast period: 2100 to 2300 UTC 03 August 2021
Forecast type: TEMPORARY: The following changes expected for less than half the time period
Visibility: 1.55 miles (2.49 km)
Ceiling: unknown
Clouds: missing
Weather: +SHRA  (heavy rain showers)
Text: TEMPO 0321/0323 2500 +SHRA
Forecast period: 0300 to 0600 UTC 04 August 2021
Forecast type: PROBABLE: 30 percent likelihood of the following during this time
Visibility: 5 miles (8 km)
Ceiling: unknown
Clouds: missing
Weather: no significant weather forecast for this period

 AIRPORT MAP

 RUNWAY INFORMATION
Runway 03 Runway length 7205 ft Runway width 148 ft
Runway elevation 121 ft Runway displaced threshold 0 ft Runway heading 22
Runway 21 Runway length 7205 ft Runway width 148 ft
Runway elevation 74 ft Runway displaced threshold 806 ft Runway heading 202
Runway 09 Runway length 3458 ft Runway width 98 ft
Runway elevation 87 ft Runway displaced threshold 0 ft Runway heading 82
Runway 27 Runway length 3458 ft Runway width 98 ft
Runway elevation 85 ft Runway displaced threshold 647 ft Runway heading 262

 AIRPORT FREQUENCIES
Type APP Name APP Frequency 119.125 MHZ
Type ATIS Name INFO Frequency 124.125 MHZ
Type TWR Name TWR Frequency 124.9 MHZ

 AIRPORT NEAR NAVIGATION AIDS





Powered by Virtual Airlines Manager

Maps by Rafael Santos